CheckWX is a tool to help pilots better visualize weather data.  It is not intended as a substitute for an official pre-flight weather briefing.

20:41:37 UTC

EGPH TAF
Edinburgh Airport
Edinburgh, United Kingdom
TAF EGPH 261701Z 2618/2718 06007KT 9999 SCT030 TEMPO 2700/2707 7000 PROB30 TEMPO 2702/2707 4000 BR

Jun-26@
18:00 UTC

Jun-26 @ 18:00 UTC

Jun-27@
18:00 UTC

Jun-27 @ 18:00 UTC

TAF EGPH 261701Z 2618/2718 06007KT 9999 SCT030
Wind
  • 060° at 7 KTS
Cloud Levels
  • Scattered at 3,000' AGL

Jun-27@
00:00 UTC

Jun-27 @ 00:00 UTC

Jun-27@
07:00 UTC

Jun-27 @ 07:00 UTC

TEMPO 2700/2707 7000

Temporary

Temporary Changes expected for less than half the time period

Jun-27@
02:00 UTC

Jun-27 @ 02:00 UTC

Jun-27@
07:00 UTC

Jun-27 @ 07:00 UTC

PROB30 TEMPO 2702/2707 4000 BR

Temporary - 30% Likelihood

Temporary - 30% Likelihood during this time.

Conditions
Mist